createdAt,value
2023-05-04T00:00:20.848Z,29.45
2023-05-04T00:02:49.565Z,30.84
2023-05-04T00:05:17.240Z,30.29
2023-05-04T00:07:44.863Z,29.70
2023-05-04T00:10:13.633Z,29.17
2023-05-04T00:12:42.356Z,29.67
2023-05-04T00:15:10.502Z,29.03
2023-05-04T00:17:38.170Z,28.92
2023-05-04T00:20:07.328Z,29.43
2023-05-04T00:22:34.948Z,29.26
2023-05-04T00:25:02.500Z,29.01
2023-05-04T00:27:31.303Z,28.73
2023-05-04T00:30:00.435Z,29.08
2023-05-04T00:32:28.056Z,30.25
2023-05-04T00:34:55.566Z,29.40
2023-05-04T00:37:23.345Z,28.89
2023-05-04T00:39:51.683Z,29.12
2023-05-04T00:42:19.553Z,28.94
2023-05-04T00:44:47.053Z,28.86
2023-05-04T00:47:16.831Z,28.79
2023-05-04T00:49:46.206Z,29.01
2023-05-04T00:52:15.622Z,29.27
2023-05-04T00:54:46.513Z,29.34
2023-05-04T00:57:16.167Z,29.36
2023-05-04T00:59:43.747Z,29.43
2023-05-04T01:02:11.823Z,29.06
2023-05-04T01:04:39.688Z,30.16
2023-05-04T01:07:26.492Z,29.20
2023-05-04T01:10:02.225Z,28.60
2023-05-04T01:12:33.946Z,29.07
2023-05-04T01:15:03.121Z,28.63
2023-05-04T01:17:32.054Z,29.99
2023-05-04T01:20:00.176Z,30.49
2023-05-04T01:22:27.845Z,29.16
2023-05-04T01:24:55.907Z,28.77
2023-05-04T01:27:31.333Z,28.85
2023-05-04T01:30:07.599Z,28.84
2023-05-04T01:32:37.707Z,28.76
2023-05-04T01:35:06.308Z,29.08
2023-05-04T01:37:34.192Z,29.20
2023-05-04T01:40:02.726Z,29.83
2023-05-04T01:42:32.218Z,29.24
2023-05-04T01:44:59.761Z,29.01
2023-05-04T01:47:27.376Z,29.21
2023-05-04T01:49:56.764Z,28.30
2023-05-04T01:52:24.342Z,28.80
2023-05-04T01:54:51.921Z,28.41
2023-05-04T01:57:19.433Z,28.11
2023-05-04T01:59:47.164Z,28.04
2023-05-04T02:02:14.984Z,28.19
2023-05-04T02:04:42.948Z,28.14
2023-05-04T02:07:10.632Z,28.76
2023-05-04T02:09:38.553Z,28.68
2023-05-04T02:12:06.123Z,29.15
2023-05-04T02:14:33.726Z,28.55
2023-05-04T02:17:01.259Z,28.90
2023-05-04T02:19:28.984Z,28.58
2023-05-04T02:21:56.603Z,29.23
2023-05-04T02:24:24.074Z,28.64
2023-05-04T02:26:51.618Z,28.83
2023-05-04T02:29:19.262Z,28.83
2023-05-04T02:31:46.918Z,28.78
2023-05-04T02:34:14.947Z,28.80
2023-05-04T02:36:47.685Z,28.67
2023-05-04T02:39:15.399Z,28.74
2023-05-04T02:41:43.065Z,28.83
2023-05-04T02:44:10.563Z,28.72
2023-05-04T02:46:38.082Z,29.26
2023-05-04T02:49:06.504Z,29.12
2023-05-04T02:51:34.204Z,30.73
2023-05-04T02:54:01.832Z,32.99
2023-05-04T02:56:29.401Z,30.11
2023-05-04T02:58:56.978Z,29.91
2023-05-04T03:01:24.621Z,29.04
2023-05-04T03:03:52.374Z,29.30
2023-05-04T03:06:19.978Z,29.02
2023-05-04T03:08:47.508Z,29.96
2023-05-04T03:11:16.437Z,30.69
2023-05-04T03:13:44.647Z,30.77
2023-05-04T03:16:12.351Z,30.05
2023-05-04T03:18:39.914Z,29.96
2023-05-04T03:21:08.304Z,29.96
2023-05-04T03:23:36.524Z,29.95
2023-05-04T03:26:04.422Z,29.34
2023-05-04T03:28:32.620Z,29.27
2023-05-04T03:31:00.228Z,29.30
2023-05-04T03:33:27.850Z,29.93
2023-05-04T03:35:56.582Z,29.06
2023-05-04T03:38:24.342Z,29.07
2023-05-04T03:40:53.473Z,29.08
2023-05-04T03:43:21.310Z,29.04
2023-05-04T03:45:49.645Z,29.70
2023-05-04T03:48:18.252Z,29.89
2023-05-04T03:50:46.197Z,30.37
2023-05-04T03:53:15.798Z,30.98
2023-05-04T03:55:44.565Z,29.47
2023-05-04T03:58:12.785Z,29.66
2023-05-04T04:00:41.575Z,28.61
2023-05-04T04:03:14.198Z,29.82
2023-05-04T04:05:42.015Z,29.44
2023-05-04T04:08:09.730Z,29.41
2023-05-04T04:10:37.716Z,29.00
2023-05-04T04:13:05.479Z,28.74
2023-05-04T04:15:33.152Z,28.36
2023-05-04T04:18:00.763Z,28.70
2023-05-04T04:20:31.254Z,27.95
2023-05-04T04:22:58.791Z,28.41
2023-05-04T04:25:26.808Z,27.77
2023-05-04T04:27:55.559Z,27.02
2023-05-04T04:30:24.030Z,28.67
2023-05-04T04:32:51.569Z,29.59
2023-05-04T04:35:19.653Z,27.65
2023-05-04T04:37:47.223Z,26.77
2023-05-04T04:40:17.677Z,27.13
2023-05-04T04:42:46.687Z,26.46
2023-05-04T04:45:15.500Z,26.41
2023-05-04T04:47:43.144Z,26.48
2023-05-04T04:50:14.527Z,26.33
2023-05-04T04:52:42.082Z,27.02
2023-05-04T04:55:09.977Z,26.92
2023-05-04T04:57:37.944Z,27.15
2023-05-04T05:00:11.312Z,25.44
2023-05-04T05:02:40.491Z,25.67
2023-05-04T05:05:08.931Z,26.65
2023-05-04T05:07:36.801Z,25.09
2023-05-04T05:10:06.079Z,25.22
2023-05-04T05:12:36.751Z,25.12
2023-05-04T05:15:05.036Z,25.79
2023-05-04T05:17:35.566Z,26.35
2023-05-04T05:20:12.554Z,25.07
2023-05-04T05:22:41.273Z,24.47
2023-05-04T05:25:09.010Z,24.64
2023-05-04T05:27:37.228Z,25.95
2023-05-04T05:30:06.422Z,26.35
2023-05-04T05:32:34.681Z,25.12
2023-05-04T05:35:02.281Z,24.49
2023-05-04T05:37:30.663Z,24.32
2023-05-04T05:39:58.637Z,24.55
2023-05-04T05:42:26.185Z,23.70
2023-05-04T05:44:53.652Z,23.95
2023-05-04T05:47:21.135Z,22.62
2023-05-04T05:49:49.089Z,24.00
2023-05-04T05:52:17.779Z,25.12
2023-05-04T05:54:45.400Z,24.49
2023-05-04T05:57:12.991Z,24.13
2023-05-04T05:59:42.174Z,23.98
2023-05-04T06:02:09.931Z,23.63
2023-05-04T06:04:37.560Z,22.91
2023-05-04T06:07:05.214Z,23.71
2023-05-04T06:09:32.833Z,22.90
2023-05-04T06:12:00.609Z,23.46
2023-05-04T06:14:28.281Z,22.13
2023-05-04T06:16:55.798Z,22.96
2023-05-04T06:19:23.399Z,22.92
2023-05-04T06:21:51.070Z,22.34
2023-05-04T06:24:18.644Z,23.24
2023-05-04T06:26:46.336Z,22.12
2023-05-04T06:29:14.272Z,22.33
2023-05-04T06:31:41.984Z,23.44
2023-05-04T06:34:09.537Z,22.98
2023-05-04T06:36:37.138Z,22.90
2023-05-04T06:39:05.049Z,22.37
2023-05-04T06:41:32.785Z,22.72
2023-05-04T06:44:00.629Z,21.91
2023-05-04T06:46:28.249Z,21.73
2023-05-04T06:48:55.935Z,23.08
2023-05-04T06:51:23.448Z,22.60
2023-05-04T06:53:51.122Z,22.15
2023-05-04T06:56:18.700Z,22.79
2023-05-04T06:58:46.270Z,21.88
2023-05-04T07:01:14.521Z,22.12
2023-05-04T07:03:43.709Z,21.92
2023-05-04T07:06:11.379Z,20.89
2023-05-04T07:08:39.545Z,20.29
2023-05-04T07:11:09.317Z,21.54
2023-05-04T07:13:37.652Z,21.19
2023-05-04T07:16:08.196Z,21.44
2023-05-04T07:18:36.148Z,21.33
2023-05-04T07:21:21.767Z,21.56
2023-05-04T07:23:52.224Z,21.39
2023-05-04T07:26:19.871Z,21.28
2023-05-04T07:28:47.455Z,21.83
2023-05-04T07:31:15.966Z,20.74
2023-05-04T07:33:43.587Z,20.69
2023-05-04T07:36:11.144Z,20.00
2023-05-04T07:38:38.809Z,19.64
2023-05-04T07:41:07.406Z,20.68
2023-05-04T07:43:35.091Z,20.55
2023-05-04T07:46:03.303Z,20.89
2023-05-04T07:48:31.290Z,20.12
2023-05-04T07:50:59.006Z,20.10
2023-05-04T07:53:27.032Z,21.64
2023-05-04T07:55:57.197Z,19.79
2023-05-04T07:58:24.823Z,19.38
2023-05-04T08:00:52.931Z,20.31
2023-05-04T08:03:20.446Z,19.65
2023-05-04T08:05:48.064Z,18.47
2023-05-04T08:08:15.639Z,18.73
2023-05-04T08:10:44.578Z,19.35
2023-05-04T08:13:12.173Z,18.02
2023-05-04T08:15:39.795Z,18.93
2023-05-04T08:18:07.424Z,19.30
2023-05-04T08:20:36.056Z,16.94
2023-05-04T08:23:04.921Z,16.98
2023-05-04T08:25:32.499Z,18.75
2023-05-04T08:28:00.247Z,17.88
2023-05-04T08:30:27.901Z,17.11
2023-05-04T08:32:56.577Z,16.83
2023-05-04T08:35:27.692Z,17.55
2023-05-04T08:37:55.678Z,16.98
2023-05-04T08:40:25.334Z,17.00
2023-05-04T08:42:53.333Z,18.91
2023-05-04T08:45:22.458Z,18.23
2023-05-04T08:47:50.995Z,17.67
2023-05-04T08:50:18.803Z,18.03
2023-05-04T08:52:47.336Z,17.67
2023-05-04T08:55:17.116Z,16.76
2023-05-04T08:57:46.410Z,20.00
2023-05-04T09:00:16.936Z,18.47
2023-05-04T09:02:46.085Z,17.44
2023-05-04T09:05:14.476Z,17.55
2023-05-04T09:07:42.315Z,17.40
2023-05-04T09:10:11.475Z,15.48
2023-05-04T09:12:39.951Z,16.20
2023-05-04T09:15:18.727Z,15.81
2023-05-04T09:18:03.442Z,15.48
2023-05-04T09:20:31.850Z,16.56
2023-05-04T09:23:09.141Z,16.22
2023-05-04T09:25:49.436Z,16.64
2023-05-04T09:28:18.390Z,16.01
2023-05-04T09:30:49.118Z,16.91
2023-05-04T09:33:16.971Z,16.05
2023-05-04T09:35:45.477Z,14.87
2023-05-04T09:38:25.998Z,17.10
2023-05-04T09:40:54.115Z,16.20
2023-05-04T09:43:22.614Z,16.12
2023-05-04T09:45:51.409Z,16.04
2023-05-04T09:48:20.258Z,16.47
2023-05-04T09:50:52.153Z,16.06
2023-05-04T09:53:27.345Z,15.83
2023-05-04T09:56:14.761Z,14.86
2023-05-04T09:58:43.730Z,15.69
2023-05-04T10:01:13.145Z,15.00
2023-05-04T10:03:42.415Z,13.51
2023-05-04T10:06:11.546Z,15.14
2023-05-04T10:08:41.123Z,16.39
2023-05-04T10:11:09.149Z,14.63
2023-05-04T10:13:36.880Z,15.96
2023-05-04T10:16:10.025Z,12.48
2023-05-04T10:19:00.532Z,16.66
2023-05-04T10:21:49.496Z,15.99
2023-05-04T10:24:30.633Z,17.43
2023-05-04T10:27:00.600Z,15.01
2023-05-04T10:29:30.211Z,17.83
2023-05-04T10:31:58.701Z,15.08
2023-05-04T10:34:31.688Z,16.12
2023-05-04T10:37:00.923Z,16.36
2023-05-04T10:39:34.087Z,17.09
2023-05-04T10:42:05.471Z,17.80
2023-05-04T10:44:35.187Z,19.19
2023-05-04T10:47:06.818Z,20.43
2023-05-04T10:49:35.575Z,20.54
2023-05-04T10:52:08.976Z,20.23
2023-05-04T10:54:38.184Z,19.99
2023-05-04T10:57:07.768Z,20.13
2023-05-04T10:59:36.700Z,19.91
2023-05-04T11:02:05.668Z,20.65
2023-05-04T11:04:33.890Z,20.61
2023-05-04T11:07:06.312Z,20.32
2023-05-04T11:09:42.031Z,20.23
2023-05-04T11:12:10.762Z,19.01
2023-05-04T11:14:42.706Z,20.94
2023-05-04T11:19:52.804Z,19.13
2023-05-04T11:22:20.844Z,19.00
2023-05-04T11:24:49.119Z,18.30
2023-05-04T11:27:31.052Z,18.65
2023-05-04T11:30:01.333Z,16.74
2023-05-04T11:32:50.236Z,16.79
2023-05-04T11:35:20.539Z,18.54
2023-05-04T11:37:49.598Z,17.07
2023-05-04T11:40:19.888Z,16.85
2023-05-04T11:42:49.861Z,18.83
2023-05-04T11:45:19.765Z,17.74
2023-05-04T11:47:48.415Z,17.28
2023-05-04T11:50:20.528Z,18.53
2023-05-04T11:52:48.991Z,16.48
2023-05-04T11:55:29.747Z,18.13
2023-05-04T11:58:00.774Z,17.59
2023-05-04T12:00:58.341Z,17.32
2023-05-04T12:03:39.657Z,17.91
2023-05-04T12:06:16.472Z,18.06
2023-05-04T12:08:44.032Z,20.50
2023-05-04T12:11:12.709Z,19.77
2023-05-04T12:13:41.256Z,21.77
2023-05-04T12:16:16.351Z,19.62
2023-05-04T12:18:45.469Z,21.05
2023-05-04T12:21:15.971Z,21.31
2023-05-04T12:23:44.633Z,22.37
2023-05-04T12:26:13.345Z,22.22
2023-05-04T12:28:42.792Z,21.25
2023-05-04T12:31:10.495Z,20.36
2023-05-04T12:33:38.104Z,21.25
2023-05-04T12:36:06.195Z,22.67
2023-05-04T12:38:34.338Z,22.90
2023-05-04T12:41:05.935Z,21.59
2023-05-04T12:43:33.846Z,23.37
2023-05-04T12:46:01.343Z,21.77
2023-05-04T12:48:32.886Z,21.42
2023-05-04T12:51:04.020Z,21.68
2023-05-04T12:53:32.369Z,22.98
2023-05-04T12:56:01.836Z,21.72
2023-05-04T12:58:29.809Z,21.18
2023-05-04T13:00:58.069Z,20.96
2023-05-04T13:03:26.791Z,20.49
2023-05-04T13:05:57.399Z,20.38
2023-05-04T13:08:25.246Z,21.39
2023-05-04T13:10:53.015Z,20.04
2023-05-04T13:13:23.085Z,20.13
2023-05-04T13:15:51.197Z,19.26
2023-05-04T13:18:18.968Z,20.75
2023-05-04T13:20:47.968Z,22.36
2023-05-04T13:23:15.770Z,22.87
2023-05-04T13:25:43.298Z,23.29
2023-05-04T13:28:11.123Z,23.46
2023-05-04T13:30:38.711Z,23.81
2023-05-04T13:33:13.657Z,23.01
2023-05-04T13:35:56.143Z,22.58
2023-05-04T13:38:24.827Z,21.86
2023-05-04T13:40:53.499Z,22.88
2023-05-04T13:43:22.210Z,21.71
2023-05-04T13:45:50.040Z,20.86
2023-05-04T13:48:18.101Z,22.71
2023-05-04T13:50:46.222Z,20.24
2023-05-04T13:53:14.496Z,17.75
2023-05-04T13:55:42.156Z,18.78
2023-05-04T13:58:09.951Z,17.20
2023-05-04T14:00:40.417Z,16.86
2023-05-04T14:03:08.034Z,17.42
2023-05-04T14:05:35.802Z,17.21
2023-05-04T14:08:03.593Z,18.03
2023-05-04T14:10:31.620Z,19.43
2023-05-04T14:12:59.230Z,17.03
2023-05-04T14:15:27.652Z,15.30
2023-05-04T14:17:55.230Z,14.02
2023-05-04T14:20:30.732Z,14.71
2023-05-04T14:23:01.190Z,17.51
2023-05-04T14:25:34.815Z,16.10
2023-05-04T14:28:04.366Z,15.50
2023-05-04T14:30:33.034Z,14.72
2023-05-04T14:33:03.568Z,15.65
2023-05-04T14:35:31.239Z,17.99
2023-05-04T14:38:08.411Z,19.16
2023-05-04T14:40:36.021Z,19.49
2023-05-04T14:43:03.828Z,19.75
2023-05-04T14:45:33.198Z,20.43
2023-05-04T14:48:01.185Z,19.82
2023-05-04T14:50:29.770Z,19.75
2023-05-04T14:52:57.374Z,19.90
2023-05-04T14:55:25.154Z,20.16
2023-05-04T14:57:52.821Z,20.80
2023-05-04T15:00:23.578Z,19.61
2023-05-04T15:02:51.838Z,18.92
2023-05-04T15:05:19.995Z,18.90
2023-05-04T15:07:47.682Z,19.67
2023-05-04T15:10:17.865Z,20.89
2023-05-04T15:12:47.087Z,20.68
2023-05-04T15:15:15.824Z,19.55
2023-05-04T15:17:43.810Z,21.23
2023-05-04T15:20:16.350Z,21.09
2023-05-04T15:22:52.239Z,20.80
2023-05-04T15:25:23.867Z,22.38
2023-05-04T15:27:51.443Z,20.02
2023-05-04T15:30:19.286Z,20.25
2023-05-04T15:32:48.249Z,20.31
2023-05-04T15:35:15.779Z,20.46
2023-05-04T15:37:43.298Z,20.59
2023-05-04T15:40:12.590Z,19.20
2023-05-04T15:42:40.597Z,19.15
2023-05-04T15:45:09.896Z,18.28
2023-05-04T15:47:38.159Z,17.04
2023-05-04T15:50:06.760Z,16.96
2023-05-04T15:52:38.876Z,17.78
2023-05-04T15:55:23.406Z,18.90
2023-05-04T15:57:54.128Z,16.63
2023-05-04T16:00:25.390Z,17.82
2023-05-04T16:02:53.171Z,18.97
2023-05-04T16:05:20.900Z,20.88
2023-05-04T16:07:48.675Z,18.27
2023-05-04T16:10:16.750Z,18.47
2023-05-04T16:12:45.154Z,18.02
2023-05-04T16:15:12.719Z,19.03
2023-05-04T16:17:40.377Z,19.79
2023-05-04T16:20:09.199Z,20.59
2023-05-04T16:22:40.969Z,21.18
2023-05-04T16:25:10.978Z,22.85
2023-05-04T16:27:39.196Z,21.67
2023-05-04T16:30:08.797Z,21.34
2023-05-04T16:32:37.581Z,21.63
2023-05-04T16:35:05.698Z,21.53
2023-05-04T16:37:36.337Z,21.57
2023-05-04T16:40:15.214Z,21.42
2023-05-04T16:42:45.430Z,21.37
2023-05-04T16:45:13.960Z,20.55
2023-05-04T16:47:44.874Z,22.17
2023-05-04T16:50:14.251Z,21.33
2023-05-04T16:52:42.438Z,22.23
2023-05-04T16:55:12.086Z,23.04
2023-05-04T16:57:40.239Z,23.48
2023-05-04T17:00:09.272Z,23.59
2023-05-04T17:02:39.077Z,24.31
2023-05-04T17:05:07.024Z,22.71
2023-05-04T17:07:34.652Z,22.82
2023-05-04T17:10:07.785Z,21.89
2023-05-04T17:12:36.426Z,21.92
2023-05-04T17:15:05.884Z,22.85
2023-05-04T17:17:33.541Z,23.44
2023-05-04T17:20:02.603Z,21.95
2023-05-04T17:22:33.229Z,22.63
2023-05-04T17:25:00.792Z,23.35
2023-05-04T17:27:28.377Z,21.84
2023-05-04T17:29:57.410Z,21.51
2023-05-04T17:32:25.367Z,23.43
2023-05-04T17:34:53.134Z,22.28
2023-05-04T17:37:20.798Z,21.76
2023-05-04T17:39:50.915Z,21.97
2023-05-04T17:42:18.517Z,22.38
2023-05-04T17:44:46.191Z,22.01
2023-05-04T17:47:13.766Z,22.58
2023-05-04T17:49:41.859Z,22.41
2023-05-04T17:52:11.916Z,22.78
2023-05-04T17:54:40.233Z,22.71
2023-05-04T17:57:07.934Z,22.96
2023-05-04T17:59:35.586Z,22.99
2023-05-04T18:02:03.322Z,22.84
2023-05-04T18:04:32.347Z,23.24
2023-05-04T18:06:59.921Z,23.66
2023-05-04T18:09:27.568Z,23.71
2023-05-04T18:11:55.197Z,23.69
2023-05-04T18:14:22.746Z,23.99
2023-05-04T18:16:50.297Z,23.97
2023-05-04T18:19:23.846Z,23.82
2023-05-04T18:21:51.592Z,24.29
2023-05-04T18:24:19.978Z,24.53
2023-05-04T18:26:48.832Z,24.69
2023-05-04T18:29:19.366Z,25.03
2023-05-04T18:31:47.462Z,25.02
2023-05-04T18:34:15.072Z,25.14
2023-05-04T18:36:43.483Z,25.03
2023-05-04T18:39:11.075Z,25.05
2023-05-04T18:41:40.489Z,26.56
2023-05-04T18:44:17.100Z,25.63
2023-05-04T18:46:44.669Z,26.53
2023-05-04T18:49:12.450Z,26.25
2023-05-04T18:51:41.724Z,26.41
2023-05-04T18:54:09.411Z,26.45
2023-05-04T18:56:36.969Z,25.92
2023-05-04T18:59:06.100Z,25.88
2023-05-04T19:01:34.195Z,25.99
2023-05-04T19:04:03.738Z,26.48
2023-05-04T19:06:32.560Z,26.14
2023-05-04T19:09:00.204Z,27.58
2023-05-04T19:11:28.976Z,26.55
2023-05-04T19:13:56.504Z,26.96
2023-05-04T19:16:27.138Z,26.88
2023-05-04T19:18:55.685Z,26.75
2023-05-04T19:21:23.306Z,26.87
2023-05-04T19:23:51.155Z,27.22
2023-05-04T19:26:18.648Z,27.98
2023-05-04T19:28:46.297Z,28.41
2023-05-04T19:31:15.823Z,27.24
2023-05-04T19:33:48.536Z,27.97
2023-05-04T19:36:17.195Z,26.87
2023-05-04T19:38:44.959Z,27.65
2023-05-04T19:41:13.873Z,27.29
2023-05-04T19:43:42.685Z,27.91
2023-05-04T19:46:10.385Z,27.32
2023-05-04T19:48:38.785Z,27.96
2023-05-04T19:51:07.150Z,27.38
2023-05-04T19:53:35.084Z,28.25
2023-05-04T19:56:02.783Z,27.79
2023-05-04T19:58:30.936Z,28.56
2023-05-04T20:00:59.176Z,28.29
2023-05-04T20:03:26.822Z,28.15
2023-05-04T20:05:54.725Z,29.04
2023-05-04T20:08:22.403Z,28.08
2023-05-04T20:10:50.407Z,27.62
2023-05-04T20:13:18.477Z,27.30
2023-05-04T20:15:46.825Z,27.39
2023-05-04T20:18:14.380Z,27.99
2023-05-04T20:20:42.293Z,28.32
2023-05-04T20:23:10.009Z,28.23
2023-05-04T20:25:37.604Z,27.83
2023-05-04T20:28:05.742Z,28.37
2023-05-04T20:30:33.441Z,28.10
2023-05-04T20:33:01.132Z,28.19
2023-05-04T20:35:28.815Z,28.09
2023-05-04T20:37:56.266Z,28.23
2023-05-04T20:40:26.507Z,28.33
2023-05-04T20:42:54.376Z,28.18
2023-05-04T20:45:22.025Z,29.11
2023-05-04T20:47:49.897Z,28.54
2023-05-04T20:50:20.471Z,29.95
2023-05-04T20:52:48.019Z,28.95
2023-05-04T20:55:16.657Z,28.99
2023-05-04T20:57:44.426Z,29.48
2023-05-04T21:00:13.725Z,28.63
2023-05-04T21:02:43.173Z,28.48
2023-05-04T21:05:11.401Z,28.08
2023-05-04T21:07:39.080Z,28.58
2023-05-04T21:10:09.409Z,29.41
2023-05-04T21:12:38.104Z,27.55
2023-05-04T21:15:05.974Z,27.87
2023-05-04T21:17:33.517Z,28.85
2023-05-04T21:20:01.530Z,28.62
2023-05-04T21:22:29.469Z,29.52
2023-05-04T21:24:56.984Z,29.45
2023-05-04T21:27:24.608Z,29.28
2023-05-04T21:29:53.192Z,28.18
2023-05-04T21:32:21.112Z,28.20
2023-05-04T21:34:54.959Z,27.54
2023-05-04T21:37:22.922Z,29.75
2023-05-04T21:39:55.788Z,28.00
2023-05-04T21:42:23.828Z,28.40
2023-05-04T21:44:58.029Z,27.92
2023-05-04T21:47:26.578Z,26.82
2023-05-04T21:49:57.089Z,27.53
2023-05-04T21:52:25.031Z,28.40
2023-05-04T21:54:52.521Z,27.80
2023-05-04T21:57:20.161Z,27.60
2023-05-04T21:59:49.601Z,29.30
2023-05-04T22:02:17.622Z,27.58
2023-05-04T22:04:45.623Z,25.89
2023-05-04T22:07:13.344Z,26.45
2023-05-04T22:09:41.687Z,25.95
2023-05-04T22:12:09.232Z,25.81
2023-05-04T22:14:36.794Z,25.56
2023-05-04T22:17:04.468Z,25.79
2023-05-04T22:19:32.031Z,27.00
2023-05-04T22:21:59.570Z,25.89
2023-05-04T22:24:27.122Z,27.53
2023-05-04T22:26:54.641Z,27.38
2023-05-04T22:29:22.325Z,26.25
2023-05-04T22:31:49.814Z,26.48
2023-05-04T22:34:17.361Z,26.55
2023-05-04T22:36:44.972Z,27.71
2023-05-04T22:39:13.016Z,27.51
2023-05-04T22:41:40.606Z,27.03
2023-05-04T22:44:08.685Z,27.49
2023-05-04T22:46:37.291Z,26.73
2023-05-04T22:49:05.397Z,26.98
2023-05-04T22:51:32.970Z,27.88
2023-05-04T22:54:00.768Z,28.30
2023-05-04T22:56:28.325Z,27.35
2023-05-04T22:58:55.851Z,27.69
2023-05-04T23:01:24.292Z,27.01
2023-05-04T23:03:52.183Z,26.61
2023-05-04T23:06:19.856Z,28.25
2023-05-04T23:08:47.721Z,28.65
2023-05-04T23:11:20.474Z,26.41
2023-05-04T23:13:48.227Z,28.00
2023-05-04T23:16:15.825Z,27.50
2023-05-04T23:18:43.449Z,27.40
2023-05-04T23:21:11.322Z,26.38
2023-05-04T23:23:38.880Z,26.38
2023-05-04T23:26:07.689Z,26.71
2023-05-04T23:28:35.267Z,26.71
2023-05-04T23:31:03.395Z,26.33
2023-05-04T23:33:31.083Z,26.60
2023-05-04T23:35:58.575Z,28.29
2023-05-04T23:38:26.161Z,28.12
2023-05-04T23:40:54.321Z,26.32
2023-05-04T23:43:23.568Z,27.44
2023-05-04T23:46:01.962Z,26.66
2023-05-04T23:48:34.308Z,28.02
2023-05-04T23:51:04.800Z,26.51
2023-05-04T23:53:33.837Z,26.56
